createdAt,value
2017-11-04T00:00:57.675Z,43.60
2017-11-04T00:03:25.109Z,43.20
2017-11-04T00:05:52.547Z,43.50
2017-11-04T00:08:19.973Z,43.50
2017-11-04T00:10:47.444Z,44.60
2017-11-04T00:13:14.874Z,45.40
2017-11-04T00:15:42.305Z,45.20
2017-11-04T00:18:09.749Z,45.30
2017-11-04T00:20:37.941Z,46.10
2017-11-04T00:23:05.429Z,46.10
2017-11-04T00:25:32.859Z,45.90
2017-11-04T00:28:00.292Z,45.80
2017-11-04T00:30:27.720Z,45.40
2017-11-04T00:32:55.155Z,44.60
2017-11-04T00:35:22.584Z,44.70
2017-11-04T00:37:50.044Z,45.10
2017-11-04T00:40:17.473Z,45.60
2017-11-04T00:42:45.677Z,45.40
2017-11-04T00:45:13.104Z,45.30
2017-11-04T00:47:40.535Z,45.70
2017-11-04T00:50:07.969Z,45.90
2017-11-04T00:52:35.408Z,45.80
2017-11-04T00:55:02.841Z,46.00
2017-11-04T00:57:30.299Z,45.70
2017-11-04T00:59:57.729Z,44.80
2017-11-04T01:02:25.924Z,43.50
2017-11-04T01:04:53.369Z,43.40
2017-11-04T01:07:20.798Z,44.30
2017-11-04T01:09:48.241Z,45.10
2017-11-04T01:12:15.668Z,45.50
2017-11-04T01:14:43.119Z,45.60
2017-11-04T01:17:10.561Z,45.40
2017-11-04T01:19:38.005Z,45.60
2017-11-04T01:22:06.192Z,47.10
2017-11-04T01:24:33.636Z,47.10
2017-11-04T01:27:01.069Z,46.80
2017-11-04T01:29:28.500Z,46.00
2017-11-04T01:31:55.935Z,45.40
2017-11-04T01:34:23.368Z,44.80
2017-11-04T01:36:50.801Z,44.70
2017-11-04T01:39:19.005Z,44.90
2017-11-04T01:41:46.433Z,44.80
2017-11-04T01:44:13.879Z,45.00
2017-11-04T01:46:41.303Z,45.50
2017-11-04T01:49:08.729Z,45.70
2017-11-04T01:51:36.165Z,45.80
2017-11-04T01:54:03.106Z,45.80
2017-11-04T01:56:30.544Z,46.10
2017-11-04T01:58:57.966Z,46.00
2017-11-04T02:01:25.418Z,46.00
2017-11-04T02:03:52.840Z,46.00
2017-11-04T02:06:20.280Z,45.90
2017-11-04T02:08:48.477Z,45.80
2017-11-04T02:11:15.916Z,45.80
2017-11-04T02:13:43.425Z,46.10
2017-11-04T02:16:10.860Z,45.60
2017-11-04T02:18:38.284Z,45.30
2017-11-04T02:21:05.719Z,45.10
2017-11-04T02:23:33.149Z,45.40
2017-11-04T02:26:00.588Z,45.80
2017-11-04T02:28:28.022Z,45.60
2017-11-04T02:30:55.499Z,45.50
2017-11-04T02:33:22.928Z,45.30
2017-11-04T02:35:50.524Z,45.40
2017-11-04T02:38:17.966Z,45.60
2017-11-04T02:40:45.401Z,45.60
2017-11-04T02:43:12.840Z,45.70
2017-11-04T02:45:40.338Z,45.60
2017-11-04T02:48:07.776Z,45.50
2017-11-04T02:50:35.206Z,45.50
2017-11-04T02:53:02.664Z,45.40
2017-11-04T02:55:30.092Z,45.70
2017-11-04T02:57:57.536Z,45.70
2017-11-04T03:00:24.962Z,46.00
2017-11-04T03:02:52.449Z,46.30
2017-11-04T03:05:19.887Z,46.50
2017-11-04T03:07:47.312Z,46.40
2017-11-04T03:10:14.795Z,46.10
2017-11-04T03:12:42.223Z,46.00
2017-11-04T03:15:10.417Z,45.80
2017-11-04T03:17:37.845Z,45.80
2017-11-04T03:20:05.285Z,46.40
2017-11-04T03:22:32.707Z,46.50
2017-11-04T03:25:00.150Z,46.90
2017-11-04T03:27:27.573Z,46.90
2017-11-04T03:29:55.012Z,46.70
2017-11-04T03:32:23.207Z,46.40
2017-11-04T03:34:50.656Z,46.40
2017-11-04T03:37:18.097Z,47.00
2017-11-04T03:39:45.539Z,48.50
2017-11-04T03:42:12.969Z,49.20
2017-11-04T03:44:40.415Z,48.70
2017-11-04T03:47:07.843Z,47.30
2017-11-04T03:49:35.327Z,47.30
2017-11-04T03:52:02.744Z,47.30
2017-11-04T03:54:30.936Z,47.00
2017-11-04T03:56:58.374Z,47.00
2017-11-04T03:59:25.800Z,47.00
2017-11-04T04:01:53.244Z,46.90
2017-11-04T04:04:20.685Z,47.00
2017-11-04T04:06:48.111Z,47.20
2017-11-04T04:09:15.536Z,47.30
2017-11-04T04:11:43.739Z,48.30
2017-11-04T04:14:11.178Z,48.20
2017-11-04T04:16:38.610Z,48.00
2017-11-04T04:19:06.041Z,47.70
2017-11-04T04:21:33.489Z,47.90
2017-11-04T04:24:00.923Z,47.90
2017-11-04T04:26:28.356Z,47.50
2017-11-04T04:28:56.557Z,47.50
2017-11-04T04:31:24.008Z,46.80
2017-11-04T04:33:51.436Z,46.50
2017-11-04T04:36:18.869Z,46.50
2017-11-04T04:38:46.305Z,46.50
2017-11-04T04:41:13.731Z,46.50
2017-11-04T04:43:41.173Z,46.80
2017-11-04T04:46:09.360Z,48.30
2017-11-04T04:48:36.815Z,48.20
2017-11-04T04:51:04.260Z,48.50
2017-11-04T04:53:31.703Z,48.60
2017-11-04T04:55:59.124Z,48.80
2017-11-04T04:58:26.569Z,49.60
2017-11-04T05:00:53.988Z,49.80
2017-11-04T05:03:21.429Z,50.50
2017-11-04T05:05:49.615Z,53.50
2017-11-04T05:08:17.828Z,53.10
2017-11-04T05:10:45.265Z,53.00
2017-11-04T05:13:12.721Z,53.60
2017-11-04T05:15:40.148Z,54.50
2017-11-04T05:18:07.576Z,55.50
2017-11-04T05:20:35.017Z,56.40
2017-11-04T05:23:02.456Z,57.00
2017-11-04T05:25:29.888Z,57.40
2017-11-04T05:27:57.312Z,58.00
2017-11-04T05:30:24.756Z,58.50
2017-11-04T05:32:52.212Z,59.30
2017-11-04T05:35:19.640Z,59.50
2017-11-04T05:37:47.074Z,59.70
2017-11-04T05:40:14.523Z,59.70
2017-11-04T05:42:41.961Z,60.00
2017-11-04T05:45:10.153Z,61.00
2017-11-04T05:47:37.580Z,60.80
2017-11-04T05:50:05.016Z,61.00
2017-11-04T05:52:32.453Z,61.00
2017-11-04T05:54:59.888Z,61.00
2017-11-04T05:57:27.330Z,61.00
2017-11-04T05:59:54.780Z,61.90
2017-11-04T06:02:22.228Z,62.40
2017-11-04T06:04:50.423Z,62.90
2017-11-04T06:07:17.865Z,62.80
2017-11-04T06:09:45.292Z,63.20
2017-11-04T06:12:12.737Z,63.50
2017-11-04T06:14:40.208Z,64.00
2017-11-04T06:17:07.648Z,64.00
2017-11-04T06:19:35.092Z,64.20
2017-11-04T06:22:02.538Z,64.30
2017-11-04T06:24:29.969Z,64.50
2017-11-04T06:26:57.423Z,64.60
2017-11-04T06:29:24.852Z,64.60
2017-11-04T06:31:53.071Z,65.20
2017-11-04T06:34:20.507Z,65.20
2017-11-04T06:36:47.948Z,65.40
2017-11-04T06:39:15.385Z,65.50
2017-11-04T06:41:42.810Z,65.70
2017-11-04T06:44:10.241Z,66.00
2017-11-04T06:46:37.689Z,66.20
2017-11-04T06:49:05.137Z,66.30
2017-11-04T06:51:33.339Z,66.50
2017-11-04T06:54:00.760Z,66.40
2017-11-04T06:56:28.189Z,66.50
2017-11-04T06:58:55.632Z,66.60
2017-11-04T07:01:23.061Z,67.00
2017-11-04T07:03:50.501Z,69.00
2017-11-04T07:06:17.938Z,70.20
2017-11-04T07:08:46.136Z,68.90
2017-11-04T07:11:13.565Z,68.90
2017-11-04T07:13:41.012Z,67.60
2017-11-04T07:16:09.356Z,67.70
2017-11-04T07:18:36.813Z,67.00
2017-11-04T07:21:04.264Z,67.00
2017-11-04T07:23:31.708Z,66.50
2017-11-04T07:25:59.139Z,66.80
2017-11-04T07:28:26.580Z,66.90
2017-11-04T07:30:54.011Z,67.10
2017-11-04T07:33:21.460Z,67.20
2017-11-04T07:35:49.032Z,67.10
2017-11-04T07:38:16.493Z,67.20
2017-11-04T07:40:43.920Z,67.00
2017-11-04T07:43:11.362Z,66.40
2017-11-04T07:45:38.812Z,66.10
2017-11-04T07:48:06.240Z,65.50
2017-11-04T07:50:33.683Z,65.00
2017-11-04T07:53:01.120Z,64.60
2017-11-04T07:55:28.575Z,64.20
2017-11-04T07:57:56.009Z,63.90
2017-11-04T08:00:23.461Z,64.30
2017-11-04T08:02:50.904Z,63.90
2017-11-04T08:05:18.345Z,64.20
2017-11-04T08:07:45.780Z,65.10
2017-11-04T08:10:13.356Z,65.00
2017-11-04T08:12:40.783Z,64.80
2017-11-04T08:15:09.033Z,64.50
2017-11-04T08:17:36.443Z,64.60
2017-11-04T08:20:03.869Z,64.60
2017-11-04T08:22:31.307Z,64.50
2017-11-04T08:24:58.731Z,64.30
2017-11-04T08:27:26.247Z,64.20
2017-11-04T08:29:53.668Z,64.60
2017-11-04T08:32:21.107Z,64.70
2017-11-04T08:34:48.541Z,64.90
2017-11-04T08:37:16.117Z,65.20
2017-11-04T08:39:43.572Z,65.40
2017-11-04T08:42:10.992Z,65.20
2017-11-04T08:44:38.425Z,65.40
2017-11-04T08:47:05.859Z,65.30
2017-11-04T08:49:33.308Z,65.50
2017-11-04T08:52:00.747Z,65.20
2017-11-04T08:54:28.176Z,65.30
2017-11-04T08:56:55.604Z,65.60
2017-11-04T08:59:23.807Z,65.30
2017-11-04T09:01:51.236Z,65.30
2017-11-04T09:04:18.678Z,65.20
2017-11-04T09:06:46.099Z,65.20
2017-11-04T09:09:13.540Z,64.90
2017-11-04T09:11:40.965Z,64.20
2017-11-04T09:14:09.188Z,63.50
2017-11-04T09:16:36.625Z,63.40
2017-11-04T09:19:04.056Z,63.30
2017-11-04T09:21:31.487Z,63.00
2017-11-04T09:23:58.939Z,63.10
2017-11-04T09:26:26.661Z,62.10
2017-11-04T09:28:54.100Z,61.80
2017-11-04T09:31:21.540Z,61.50
2017-11-04T09:33:49.731Z,61.40
2017-11-04T09:36:17.168Z,61.30
2017-11-04T09:38:44.595Z,61.30
2017-11-04T09:41:12.029Z,61.00
2017-11-04T09:43:39.494Z,60.70
2017-11-04T09:46:06.915Z,60.40
2017-11-04T09:48:34.371Z,60.10
2017-11-04T09:51:01.804Z,59.90
2017-11-04T09:53:29.997Z,58.10
2017-11-04T09:55:57.429Z,58.00
2017-11-04T09:58:24.860Z,58.30
2017-11-04T10:00:52.306Z,57.60
2017-11-04T10:03:19.727Z,57.50
2017-11-04T10:05:47.307Z,56.70
2017-11-04T10:08:14.732Z,56.50
2017-11-04T10:10:42.212Z,56.10
2017-11-04T10:13:09.645Z,56.00
2017-11-04T10:15:37.080Z,55.80
2017-11-04T10:18:04.512Z,56.00
2017-11-04T10:20:31.960Z,55.70
2017-11-04T10:22:59.414Z,56.10
2017-11-04T10:25:26.836Z,55.40
2017-11-04T10:27:54.428Z,55.50
2017-11-04T10:30:21.860Z,55.50
2017-11-04T10:32:49.296Z,55.40
2017-11-04T10:35:16.719Z,55.40
2017-11-04T10:37:44.179Z,54.50
2017-11-04T10:40:11.608Z,52.60
2017-11-04T10:42:42.977Z,51.80
2017-11-04T10:45:10.385Z,51.60
2017-11-04T10:47:37.841Z,51.60
2017-11-04T10:50:05.281Z,51.40
2017-11-04T10:52:32.700Z,51.00
2017-11-04T10:55:00.142Z,50.60
2017-11-04T10:57:27.581Z,51.70
2017-11-04T10:59:55.021Z,53.20
2017-11-04T11:02:22.447Z,50.70
2017-11-04T11:04:49.888Z,49.60
2017-11-04T11:07:17.318Z,48.90
2017-11-04T11:09:44.761Z,48.30
2017-11-04T11:12:12.195Z,48.70
2017-11-04T11:14:39.640Z,50.00
2017-11-04T11:17:07.082Z,48.50
2017-11-04T11:19:34.520Z,47.50
2017-11-04T11:22:02.720Z,44.90
2017-11-04T11:24:30.160Z,44.80
2017-11-04T11:26:57.601Z,43.00
2017-11-04T11:29:25.121Z,42.30
2017-11-04T11:31:52.549Z,41.50
2017-11-04T11:34:19.981Z,40.90
2017-11-04T11:36:47.424Z,39.50
2017-11-04T11:39:14.860Z,39.00
2017-11-04T11:41:42.396Z,38.10
2017-11-04T11:44:09.832Z,37.60
2017-11-04T11:46:37.280Z,37.30
2017-11-04T11:49:04.700Z,37.20
2017-11-04T11:51:32.132Z,36.80
2017-11-04T11:53:59.555Z,38.00
2017-11-04T11:56:27.135Z,37.10
2017-11-04T11:58:54.569Z,34.00
2017-11-04T12:01:22.024Z,32.20
2017-11-04T12:03:49.483Z,31.00
2017-11-04T12:06:16.908Z,29.80
2017-11-04T12:08:44.340Z,29.90
2017-11-04T12:11:11.760Z,30.90
2017-11-04T12:13:39.221Z,29.60
2017-11-04T12:16:06.657Z,29.30
2017-11-04T12:18:34.860Z,28.60
2017-11-04T12:21:02.284Z,28.60
2017-11-04T12:23:29.711Z,27.80
2017-11-04T12:25:57.136Z,28.00
2017-11-04T12:28:24.573Z,26.60
2017-11-04T12:30:52.000Z,27.10
2017-11-04T12:33:19.448Z,27.30
2017-11-04T12:35:47.666Z,25.60
2017-11-04T12:38:15.089Z,25.50
2017-11-04T12:40:42.537Z,24.80
2017-11-04T12:43:09.973Z,24.20
2017-11-04T12:45:37.416Z,23.30
2017-11-04T12:48:04.857Z,22.30
2017-11-04T12:50:32.300Z,18.90
2017-11-04T12:52:59.728Z,16.50
2017-11-04T12:55:27.170Z,15.60
2017-11-04T12:57:55.365Z,15.50
2017-11-04T13:00:22.848Z,15.50
2017-11-04T13:02:50.277Z,14.50
2017-11-04T13:05:17.725Z,12.90
2017-11-04T13:07:45.156Z,12.20
2017-11-04T13:10:12.635Z,12.00
2017-11-04T13:12:40.049Z,11.50
2017-11-04T13:15:07.475Z,12.40
2017-11-04T13:17:34.921Z,12.70
2017-11-04T13:20:02.361Z,12.30
2017-11-04T13:22:30.554Z,11.80
2017-11-04T13:24:57.981Z,11.80
2017-11-04T13:27:25.424Z,11.40
2017-11-04T13:29:52.843Z,10.10
2017-11-04T13:32:20.276Z,10.50
2017-11-04T13:34:47.705Z,10.10
2017-11-04T13:37:15.138Z,10.90
2017-11-04T13:39:43.328Z,15.00
2017-11-04T13:42:11.637Z,15.90
2017-11-04T13:44:39.073Z,15.40
2017-11-04T13:47:06.545Z,15.90
2017-11-04T13:49:33.967Z,16.40
2017-11-04T13:52:02.202Z,18.20
2017-11-04T13:54:29.612Z,18.10
2017-11-04T13:56:57.052Z,18.50
2017-11-04T13:59:24.484Z,19.10
2017-11-04T14:01:51.965Z,19.20
2017-11-04T14:04:19.363Z,18.80
2017-11-04T14:06:46.805Z,17.50
2017-11-04T14:09:14.250Z,14.00
2017-11-04T14:11:41.717Z,12.30
2017-11-04T14:14:09.161Z,11.10
2017-11-04T14:16:36.584Z,9.80
2017-11-04T14:19:04.021Z,9.30
2017-11-04T14:21:31.454Z,9.40
2017-11-04T14:23:58.889Z,10.50
2017-11-04T14:26:26.596Z,10.50
2017-11-04T14:28:54.032Z,10.10
2017-11-04T14:31:21.460Z,9.20
2017-11-04T14:33:48.890Z,10.20
2017-11-04T14:36:16.316Z,10.90
2017-11-04T14:38:43.751Z,11.90
2017-11-04T14:41:11.171Z,12.90
2017-11-04T14:43:39.378Z,15.30
2017-11-04T14:46:06.805Z,15.20
2017-11-04T14:48:34.235Z,16.10
2017-11-04T14:51:01.776Z,17.20
2017-11-04T14:53:29.368Z,17.90
2017-11-04T14:55:56.797Z,18.40
2017-11-04T14:58:24.230Z,19.00
2017-11-04T15:00:51.670Z,19.40
2017-11-04T15:03:19.093Z,20.10
2017-11-04T15:05:46.529Z,20.60
2017-11-04T15:08:14.156Z,20.70
2017-11-04T15:10:41.588Z,21.00
2017-11-04T15:13:09.015Z,21.10
2017-11-04T15:15:37.225Z,21.40
2017-11-04T15:18:04.663Z,21.30
2017-11-04T15:20:32.087Z,21.20
2017-11-04T15:23:00.279Z,21.80
2017-11-04T15:25:27.712Z,21.80
2017-11-04T15:27:55.143Z,22.20
2017-11-04T15:30:22.589Z,22.40
2017-11-04T15:32:50.081Z,23.10
2017-11-04T15:35:17.508Z,23.70
2017-11-04T15:37:44.947Z,24.30
2017-11-04T15:40:12.372Z,24.90
2017-11-04T15:42:39.812Z,25.50
2017-11-04T15:45:07.249Z,25.80
2017-11-04T15:47:34.677Z,26.10
2017-11-04T15:50:02.105Z,27.10
2017-11-04T15:52:29.573Z,27.80
2017-11-04T15:54:56.996Z,28.40
2017-11-04T15:57:25.604Z,29.00
2017-11-04T15:59:53.032Z,28.90
2017-11-04T16:02:20.480Z,29.40
2017-11-04T16:04:47.912Z,30.00
2017-11-04T16:07:15.348Z,30.60
2017-11-04T16:09:42.783Z,30.60
2017-11-04T16:18:09.224Z,32.80
2017-11-04T16:20:36.645Z,33.50
2017-11-04T16:23:04.080Z,34.10
2017-11-04T16:25:31.525Z,37.30
2017-11-04T16:27:59.127Z,38.60
2017-11-04T16:30:26.736Z,36.00
2017-11-04T16:32:54.167Z,35.90
2017-11-04T16:35:21.695Z,35.80
2017-11-04T16:37:49.134Z,36.00
2017-11-04T16:40:16.568Z,36.30
2017-11-04T16:42:43.998Z,36.70
2017-11-04T16:45:12.449Z,37.40
2017-11-04T16:47:39.882Z,37.30
2017-11-04T16:50:07.333Z,37.50
2017-11-04T16:52:34.859Z,38.10
2017-11-04T16:55:02.477Z,38.20
2017-11-04T16:57:30.040Z,38.00
2017-11-04T16:59:57.483Z,38.40
2017-11-04T17:02:24.945Z,38.20
2017-11-04T17:04:52.578Z,38.40
2017-11-04T17:07:20.237Z,38.40
2017-11-04T17:09:47.929Z,38.60
2017-11-04T17:12:15.713Z,39.00
2017-11-04T17:14:43.150Z,39.30
2017-11-04T17:17:10.580Z,39.50
2017-11-04T17:19:38.008Z,39.80
2017-11-04T17:22:06.348Z,39.70
2017-11-04T17:24:33.776Z,39.70
2017-11-04T17:27:01.303Z,40.20
2017-11-04T17:29:28.803Z,40.80
2017-11-04T17:31:56.963Z,40.70
2017-11-04T17:34:24.507Z,41.10
2017-11-04T17:36:53.022Z,41.80
2017-11-04T17:39:20.652Z,41.80
2017-11-04T17:41:48.085Z,41.90
2017-11-04T17:44:16.284Z,42.30
2017-11-04T17:46:43.715Z,42.20
2017-11-04T17:49:11.246Z,42.30
2017-11-04T17:51:38.852Z,42.60
2017-11-04T17:54:06.449Z,43.10
2017-11-04T17:56:34.204Z,43.60
2017-11-04T17:59:01.843Z,43.80
2017-11-04T18:01:29.297Z,43.80
2017-11-04T18:03:56.823Z,43.70
2017-11-04T18:06:24.250Z,43.70
2017-11-04T18:08:51.800Z,43.80
2017-11-04T18:11:19.475Z,44.00
2017-11-04T18:13:46.945Z,44.00
2017-11-04T18:16:14.378Z,44.10
2017-11-04T18:18:41.920Z,43.90
2017-11-04T18:21:09.406Z,44.00
2017-11-04T18:23:36.836Z,44.30
2017-11-04T18:26:04.289Z,44.60
2017-11-04T18:28:31.724Z,44.90
2017-11-04T18:30:59.184Z,45.00
2017-11-04T18:33:26.607Z,45.10
2017-11-04T18:35:54.060Z,45.20
2017-11-04T18:38:21.488Z,45.30
2017-11-04T18:40:48.949Z,45.30
2017-11-04T18:43:16.495Z,45.40
2017-11-04T18:45:44.132Z,45.50
2017-11-04T18:48:11.580Z,45.70
2017-11-04T18:56:24.992Z,46.00
2017-11-04T18:58:52.527Z,46.00
2017-11-04T19:01:20.292Z,45.90
2017-11-04T19:03:47.748Z,46.10
2017-11-04T19:06:15.508Z,46.30
2017-11-04T19:08:42.945Z,46.60
2017-11-04T19:11:10.380Z,47.00
2017-11-04T19:13:37.875Z,47.40
2017-11-04T19:16:05.311Z,47.60
2017-11-04T19:18:32.775Z,47.90
2017-11-04T19:21:00.180Z,48.50
2017-11-04T19:23:27.704Z,48.80
2017-11-04T19:25:55.336Z,49.90
2017-11-04T19:28:22.832Z,50.30
2017-11-04T19:35:18.876Z,50.90
2017-11-04T19:37:46.432Z,50.80
2017-11-04T19:40:14.091Z,51.10
2017-11-04T19:42:41.857Z,51.30
2017-11-04T19:45:09.501Z,51.10
2017-11-04T19:47:36.989Z,50.70
2017-11-04T19:50:04.476Z,50.80
2017-11-04T19:52:31.909Z,50.70
2017-11-04T19:54:59.362Z,50.70
2017-11-04T19:57:26.780Z,50.60
2017-11-04T19:59:54.273Z,50.30
2017-11-04T20:02:21.702Z,50.10
2017-11-04T20:04:49.192Z,50.20
2017-11-04T20:07:16.624Z,50.60
2017-11-04T20:09:44.065Z,50.90
2017-11-04T20:12:11.636Z,50.90
2017-11-04T20:14:39.705Z,51.20
2017-11-04T20:17:07.161Z,51.90
2017-11-04T20:19:34.618Z,51.90
2017-11-04T20:22:02.044Z,51.80
2017-11-04T20:24:29.738Z,52.20
2017-11-04T20:26:57.173Z,52.40
2017-11-04T20:29:24.795Z,52.40
2017-11-04T20:31:52.396Z,52.60
2017-11-04T20:34:19.876Z,52.50
2017-11-04T20:36:47.436Z,52.30
2017-11-04T20:39:14.966Z,52.90
2017-11-04T20:41:42.592Z,52.00
2017-11-04T20:44:10.112Z,52.10
2017-11-04T20:46:37.553Z,52.20
2017-11-04T20:49:05.016Z,52.30
2017-11-04T20:51:32.472Z,52.20
2017-11-04T20:53:59.900Z,52.30
2017-11-04T20:56:27.556Z,52.20
2017-11-04T20:58:55.760Z,52.50
2017-11-04T21:01:23.277Z,52.40
2017-11-04T21:03:50.984Z,52.20
2017-11-04T21:06:18.453Z,52.30
2017-11-04T21:08:46.071Z,52.40
2017-11-04T21:11:13.664Z,52.40
2017-11-04T21:13:41.120Z,52.50
2017-11-04T21:16:08.764Z,52.50
2017-11-04T21:18:36.204Z,52.30
2017-11-04T21:21:03.716Z,52.10
2017-11-04T21:23:31.152Z,52.10
2017-11-04T21:25:58.618Z,51.70
2017-11-04T21:28:26.072Z,51.70
2017-11-04T21:30:53.539Z,51.60
2017-11-04T21:33:21.089Z,52.10
2017-11-04T21:35:48.705Z,52.10
2017-11-04T21:38:16.291Z,52.50
2017-11-04T21:40:43.720Z,52.50
2017-11-04T21:43:11.153Z,52.30
2017-11-04T21:45:38.579Z,52.10
2017-11-04T21:48:06.032Z,52.00
2017-11-04T21:50:33.573Z,51.80
2017-11-04T21:53:01.008Z,51.70
2017-11-04T21:55:28.439Z,51.20
2017-11-04T21:57:55.884Z,50.80
2017-11-04T22:00:23.312Z,50.80
2017-11-04T22:02:50.824Z,50.70
2017-11-04T22:05:18.254Z,50.60
2017-11-04T22:07:45.683Z,50.70
2017-11-04T22:10:13.434Z,50.50
2017-11-04T22:12:41.188Z,50.80
2017-11-04T22:15:08.756Z,50.50
2017-11-04T22:17:36.225Z,50.10
2017-11-04T22:20:03.701Z,49.80
2017-11-04T22:22:31.427Z,50.50
2017-11-04T22:24:58.860Z,51.00
2017-11-04T22:27:26.332Z,50.60
2017-11-04T22:29:53.772Z,50.60
2017-11-04T22:32:21.197Z,50.40
2017-11-04T22:34:48.673Z,50.60
2017-11-04T22:37:16.157Z,51.10
2017-11-04T22:39:43.929Z,51.50
2017-11-04T22:42:11.688Z,51.40
2017-11-04T22:44:39.320Z,51.40
2017-11-04T22:47:06.908Z,51.70
2017-11-04T22:49:34.336Z,51.60
2017-11-04T22:52:01.816Z,51.40
2017-11-04T22:54:29.456Z,51.30
2017-11-04T22:56:56.993Z,51.30
2017-11-04T22:59:24.420Z,51.30
2017-11-04T23:01:51.856Z,51.70
2017-11-04T23:04:19.283Z,52.10
2017-11-04T23:06:46.777Z,51.80
2017-11-04T23:09:14.236Z,52.10
2017-11-04T23:11:41.708Z,52.00
2017-11-04T23:14:09.237Z,52.30
2017-11-04T23:16:36.872Z,52.30
2017-11-04T23:19:04.304Z,52.50
2017-11-04T23:21:32.518Z,51.70
2017-11-04T23:23:59.958Z,51.60
2017-11-04T23:26:27.432Z,51.80
2017-11-04T23:28:55.216Z,52.00
2017-11-04T23:31:22.836Z,52.20
2017-11-04T23:33:50.312Z,52.40
2017-11-04T23:36:17.737Z,52.30
2017-11-04T23:38:45.950Z,52.00
2017-11-04T23:41:13.368Z,51.90
2017-11-04T23:43:40.856Z,50.90
2017-11-04T23:46:08.288Z,50.20
2017-11-04T23:48:35.772Z,50.00
2017-11-04T23:51:03.536Z,49.80
2017-11-04T23:53:31.168Z,49.50
2017-11-04T23:55:58.637Z,48.90
2017-11-04T23:58:26.208Z,48.20
